Alma, MI

1:28 PM EDT on August 18, 2017 (GMT -0400)
Gratiot Community

Weather History for KAMN - November, 2012

Change the Weather History Date:

Wednesday, November 28, 2012

  Actual Average Record
Temperature  
Mean Temperature 32 °F -  
Max Temperature 38 °F 39 °F 66 °F (1990)
Min Temperature 25 °F 27 °F 5 °F (1955)
Degree Days  
Heating Degree Days 34    
Moisture  
Dew Point 22 °F    
Average Humidity 73    
Maximum Humidity 95    
Minimum Humidity 47    
Precipitation  
Precipitation 0.00 in - - ()
Sea Level Pressure  
Sea Level Pressure 30.23 in    
Wind  
Wind Speed 8 mph (WSW)    
Max Wind Speed 17 mph    
Max Gust Speed 23 mph    
Visibility 10 miles    
Events      
Averages and records for this station are not official NWS values.
T = Trace of Precipitation, MM = Missing Value Source: NWS Daily Summary

Daily Weather History Graph

Daily Weather History Graph

Search for Another Location

Airport or City:

Trip Planner

Search our weather history database for the weather conditions in past years. The results will help you decide how hot, cold, wet, or windy it might be!

Date:

Astronomy

Nov. 28, 2012 Rise Set
Actual Time 7:48 AM EST 5:05 PM EST
Civil Twilight 7:16 AM EST 5:36 PM EST
Nautical Twilight 6:41 AM EST 6:12 PM EST
Astronomical Twilight 6:07 AM EST 6:46 PM EST
Moon 5:19 PM EST (11/28) 7:45 AM EST (11/28)
Length of Visible Light 10h 20m
Length of Day
9h 16m
Full, 100% of the Moon is Illuminated
Nov 28
Full
Dec 6
Last Quarter
Dec 13
New
Dec 20
First Quarter
Dec 28
Full

Hourly Weather History & Observations

Time (EST) Temp. Windchill Dew Point Humidity Pressure Visibility Wind Dir Wind Speed Gust Speed Precip Events Conditions
12:13 AM 27.5 °F 19.3 °F 23.0 °F 83% 30.18 in 10.0 mi SSW 8.1 mph - N/A   Scattered Clouds
12:54 AM 28.0 °F 20.8 °F 23.0 °F 81% 30.16 in 10.0 mi SSW 6.9 mph - N/A   Mostly Cloudy
1:14 AM 28.2 °F 22.0 °F 22.8 °F 80% 30.16 in 10.0 mi SSW 5.8 mph - N/A   Mostly Cloudy
1:34 AM 28.9 °F 19.8 °F 22.8 °F 78% 30.16 in 10.0 mi SW 10.4 mph - N/A   Mostly Cloudy
1:54 AM 29.3 °F 21.5 °F 22.6 °F 76% 30.15 in 10.0 mi SW 8.1 mph - N/A   Overcast
2:14 AM 29.3 °F 22.3 °F 22.8 °F 77% 30.15 in 10.0 mi SSW 6.9 mph - N/A   Overcast
2:34 AM 29.5 °F 21.1 °F 22.6 °F 76% 30.15 in 10.0 mi SW 9.2 mph - N/A   Overcast
2:54 AM 29.7 °F 22.8 °F 22.6 °F 75% 30.16 in 10.0 mi SW 6.9 mph - N/A   Overcast
3:14 AM 29.8 °F 23.9 °F 22.8 °F 75% 30.16 in 10.0 mi WSW 5.8 mph - N/A   Overcast
3:35 AM 29.1 °F 23.0 °F 22.6 °F 77% 30.16 in 10.0 mi WSW 5.8 mph - N/A   Mostly Cloudy
3:55 AM 29.1 °F 23.0 °F 22.6 °F 77% 30.16 in 10.0 mi WSW 5.8 mph - N/A   Mostly Cloudy
4:15 AM 28.9 °F 21.9 °F 23.0 °F 78% 30.16 in 10.0 mi WSW 6.9 mph - N/A   Overcast
4:35 AM 29.3 °F 22.3 °F 23.0 °F 77% 30.16 in 10.0 mi WSW 6.9 mph - N/A   Overcast
4:55 AM 28.4 °F 20.4 °F 23.0 °F 80% 30.17 in 10.0 mi West 8.1 mph - N/A   Scattered Clouds
5:15 AM 28.6 °F 21.5 °F 24.3 °F 84% 30.17 in 10.0 mi West 6.9 mph - N/A   Mostly Cloudy
5:30 AM 29.3 °F 21.5 °F 25.0 °F 84% 30.17 in 10.0 mi West 8.1 mph - N/A   Overcast
5:50 AM 28.6 °F 21.5 °F 25.3 °F 88% 30.18 in 10.0 mi West 6.9 mph - N/A   Overcast
6:10 AM 27.7 °F 21.3 °F 25.0 °F 90% 30.18 in 10.0 mi WSW 5.8 mph - N/A   Mostly Cloudy
6:31 AM 27.3 °F 20.9 °F 25.0 °F 91% 30.18 in 10.0 mi WSW 5.8 mph - N/A   Mostly Cloudy
6:51 AM 26.6 °F 19.1 °F 24.8 °F 93% 30.20 in 10.0 mi WSW 6.9 mph - N/A   Scattered Clouds
7:11 AM 27.5 °F 22.2 °F 25.7 °F 93% 30.21 in 10.0 mi WSW 4.6 mph - N/A   Scattered Clouds
7:31 AM 27.1 °F 21.8 °F 25.3 °F 93% 30.21 in 10.0 mi SW 4.6 mph - N/A   Mostly Cloudy
7:51 AM 26.6 °F 20.0 °F 25.2 °F 94% 30.22 in 10.0 mi WSW 5.8 mph - N/A   Scattered Clouds
8:11 AM 26.4 °F 20.9 °F 25.2 °F 95% 30.22 in 7.0 mi WSW 4.6 mph - N/A   Clear
8:31 AM 27.3 °F 20.9 °F 25.9 °F 94% 30.22 in 7.0 mi SW 5.8 mph - N/A   Scattered Clouds
8:51 AM 28.9 °F 23.9 °F 26.6 °F 91% 30.23 in 7.0 mi WSW 4.6 mph - N/A   Scattered Clouds
9:12 AM 30.0 °F 22.4 °F 27.3 °F 90% 30.24 in 10.0 mi WSW 8.1 mph - N/A   Clear
9:32 AM 31.6 °F 23.7 °F 27.7 °F 85% 30.25 in 10.0 mi West 9.2 mph - N/A   Scattered Clouds
9:52 AM 32.0 °F 23.6 °F 27.3 °F 83% 30.25 in 10.0 mi West 10.4 mph - N/A   Mostly Cloudy
10:12 AM 33.6 °F 26.2 °F 27.0 °F 77% 30.26 in 10.0 mi West 9.2 mph - N/A   Mostly Cloudy
10:32 AM 35.2 °F 27.1 °F 25.9 °F 69% 30.26 in 10.0 mi West 11.5 mph - N/A   Mostly Cloudy
10:52 AM 35.6 °F 25.5 °F 24.8 °F 65% 30.26 in 10.0 mi West 17.3 mph 21.9 mph N/A   Mostly Cloudy
11:12 AM 35.2 °F 26.6 °F 23.4 °F 62% 30.27 in 10.0 mi West 12.7 mph 17.3 mph N/A   Overcast
11:32 AM 34.3 °F 25.5 °F 22.6 °F 62% 30.27 in 10.0 mi West 12.7 mph 17.3 mph N/A   Scattered Clouds
11:53 AM 35.1 °F 26.4 °F 23.0 °F 61% 30.26 in 10.0 mi West 12.7 mph 17.3 mph N/A   Mostly Cloudy
12:13 PM 36.3 °F 27.5 °F 23.0 °F 59% 30.26 in 10.0 mi West 13.8 mph 19.6 mph N/A   Overcast
12:33 PM 38.1 °F 30.7 °F 22.1 °F 53% 30.26 in 10.0 mi West 11.5 mph 23.0 mph N/A   Overcast
12:53 PM 36.1 °F 27.7 °F 21.0 °F 54% 30.25 in 10.0 mi West 12.7 mph 18.4 mph N/A   Mostly Cloudy
1:33 PM 36.7 °F 28.0 °F 21.0 °F 53% 30.24 in 10.0 mi West 13.8 mph - N/A   Scattered Clouds
1:53 PM 38.3 °F 30.9 °F 21.9 °F 52% 30.25 in 10.0 mi West 11.5 mph 17.3 mph N/A   Scattered Clouds
2:13 PM 37.2 °F 29.6 °F 21.4 °F 53% 30.25 in 10.0 mi West 11.5 mph 20.7 mph N/A   Scattered Clouds
2:34 PM 38.3 °F 30.1 °F 20.1 °F 48% 30.24 in 10.0 mi West 13.8 mph 18.4 mph N/A   Scattered Clouds
2:54 PM 37.6 °F 29.1 °F 19.8 °F 49% 30.24 in 10.0 mi West 13.8 mph 18.4 mph N/A   Clear
3:14 PM 37.6 °F 30.5 °F 18.9 °F 47% 30.24 in 10.0 mi West 10.4 mph - N/A   Clear
3:34 PM 36.7 °F 28.0 °F 18.7 °F 48% 30.24 in 10.0 mi West 13.8 mph 21.9 mph N/A   Clear
3:54 PM 36.1 °F 26.9 °F 18.9 °F 50% 30.24 in 10.0 mi WSW 15.0 mph 18.4 mph N/A   Clear
4:14 PM 35.6 °F 28.0 °F 18.1 °F 49% 30.25 in 10.0 mi West 10.4 mph - N/A   Clear
4:34 PM 34.7 °F 28.1 °F 18.1 °F 51% 30.25 in 10.0 mi West 8.1 mph - N/A   Clear
4:54 PM 33.4 °F 25.4 °F 18.1 °F 54% 30.26 in 10.0 mi West 10.4 mph - N/A   Clear
5:14 PM 32.2 °F 25.0 °F 18.5 °F 57% 30.26 in 10.0 mi West 8.1 mph - N/A   Clear
5:35 PM 31.8 °F 25.4 °F 18.3 °F 57% 30.27 in 10.0 mi West 6.9 mph - N/A   Clear
5:55 PM 30.2 °F 24.3 °F 18.3 °F 61% 30.27 in 10.0 mi West 5.8 mph - N/A   Clear
6:15 PM 29.1 °F 24.1 °F 18.1 °F 64% 30.27 in 10.0 mi West 4.6 mph - N/A   Clear
6:35 PM 28.4 °F 23.3 °F 18.1 °F 65% 30.28 in 10.0 mi West 4.6 mph - N/A   Clear
6:55 PM 28.4 °F 23.3 °F 18.3 °F 66% 30.28 in 10.0 mi West 4.6 mph - N/A   Clear
7:15 PM 28.2 °F 24.4 °F 18.1 °F 66% 30.28 in 10.0 mi WSW 3.5 mph - N/A   Clear
7:35 PM 28.2 °F 23.1 °F 18.1 °F 66% 30.28 in 10.0 mi SW 4.6 mph - N/A   Clear
7:55 PM 28.0 °F 24.2 °F 18.3 °F 67% 30.28 in 10.0 mi SSW 3.5 mph - N/A   Clear
8:16 PM 27.0 °F 21.6 °F 18.9 °F 72% 30.28 in 10.0 mi SSW 4.6 mph - N/A   Clear
8:31 PM 27.9 °F 22.6 °F 19.8 °F 72% 30.28 in 10.0 mi SW 4.6 mph - N/A   Clear
8:51 PM 28.4 °F 24.6 °F 20.8 °F 73% 30.28 in 10.0 mi SSW 3.5 mph - N/A   Clear
9:11 PM 25.9 °F 20.3 °F 21.4 °F 83% 30.28 in 10.0 mi SSW 4.6 mph - N/A   Clear
9:31 PM 25.3 °F 21.1 °F 21.4 °F 85% 30.27 in 10.0 mi SSW 3.5 mph - N/A   Clear
9:51 PM 25.7 °F 19.0 °F 22.1 °F 86% 30.27 in 10.0 mi SSW 5.8 mph - N/A   Clear
10:11 PM 26.6 °F 19.1 °F 22.8 °F 86% 30.26 in 10.0 mi SSW 6.9 mph - N/A   Clear
10:31 PM 27.1 °F 19.7 °F 23.0 °F 84% 30.26 in 10.0 mi SSW 6.9 mph - N/A   Clear
10:51 PM 27.1 °F 19.7 °F 23.4 °F 86% 30.25 in 10.0 mi SSW 6.9 mph - N/A   Clear
11:12 PM 27.3 °F 19.9 °F 23.9 °F 87% 30.25 in 10.0 mi SSW 6.9 mph - N/A   Clear
11:32 PM 27.9 °F 20.6 °F 24.6 °F 88% 30.24 in 10.0 mi SSW 6.9 mph - N/A   Clear
11:51 PM 28.2 °F 21.0 °F 24.8 °F 87% 30.24 in 10.0 mi SSW 6.9 mph - N/A   Clear